Hunterstown, Pennsylvania
Current Conditions -  °F | °C
As of 1:53 PM on Sunday 23 Nov 2014 (Local Time) from KRYT Reporting Station
Clear Clear  
Wind Chill: 54°   Ceiling: Unl
Heat Index: 54°   Visibility: 10mi
Dew Point: 23°   Wind: 5mph
Humidity: 30%   Direction: 20°NNE
Pressure: 30.07"   Gusts: NA
Location:  39.8288°N, 77.2253°W
Report Text: KRYT 231853Z AUTO 02004KT 10SM CLR 12/M05 A3007 RMK AO2 SLP185 T01221050 $
Loading
Personal Weather Stations






























Interactive Weather Map New forecast layout! Learn more

10-Day Weather Forecast

Advertisements
Track Severe Weather on mobile